Time;durP1;ratioP1;P1;durP2;ratioP2;P2;SDS_P1;SDS_P2;PMS_P1;PMS_P2;Temp;Humidity;BMP_temperature;BMP_pressure;BME280_temperature;BME280_humidity;BME280_pressure;Samples;Min_cycle;Max_cycle;Signal;HPM_P1;HPM_P2
2022/05/25 00:00:21;;;;;;;3.53;1.10;;;17.00;67.30;;;;;;5022715;28;20459;-71
2022/05/25 00:02:50;;;;;;;3.20;1.17;;;17.00;67.30;;;;;;5021648;28;20485;-71
2022/05/25 00:05:19;;;;;;;4.70;1.13;;;17.00;67.40;;;;;;5016804;28;20496;-71
2022/05/25 00:07:47;;;;;;;3.77;1.20;;;17.00;67.40;;;;;;5016924;28;21017;-71
2022/05/25 00:10:16;;;;;;;6.10;1.10;;;16.90;67.40;;;;;;5018943;28;20463;-71
2022/05/25 00:12:44;;;;;;;3.30;1.00;;;16.90;67.50;;;;;;5024337;28;20463;-70
2022/05/25 00:15:13;;;;;;;3.33;1.07;;;17.00;67.50;;;;;;5022872;28;20452;-71
2022/05/25 00:17:41;;;;;;;4.57;1.20;;;16.90;67.60;;;;;;5023886;28;20511;-71
2022/05/25 00:20:10;;;;;;;6.20;1.23;;;17.00;67.60;;;;;;5021844;28;20467;-71
2022/05/25 00:22:43;;;;;;;4.03;1.30;;;16.90;67.50;;;;;;5023344;28;20483;-71
2022/05/25 00:25:13;;;;;;;4.00;1.50;;;16.90;67.60;;;;;;5021272;28;20465;-71
2022/05/25 00:27:43;;;;;;;4.30;1.23;;;17.00;67.70;;;;;;5022823;28;20490;-71
2022/05/25 00:30:12;;;;;;;3.77;1.13;;;16.90;67.70;;;;;;5024223;28;20495;-71
2022/05/25 00:32:41;;;;;;;3.50;1.20;;;17.00;67.80;;;;;;5023305;28;20945;-71
2022/05/25 00:35:10;;;;;;;3.20;1.17;;;17.00;67.80;;;;;;5020798;28;20464;-71
2022/05/25 00:37:39;;;;;;;3.77;1.40;;;16.90;67.90;;;;;;5017391;28;20487;-71
2022/05/25 00:40:11;;;;;;;3.97;1.23;;;16.90;68.00;;;;;;5015790;28;20463;-71
2022/05/25 00:42:40;;;;;;;5.23;1.43;;;17.00;68.00;;;;;;5016921;28;20510;-71
2022/05/25 00:45:11;;;;;;;4.20;1.33;;;17.00;68.00;;;;;;5020903;28;20460;-71
2022/05/25 00:47:41;;;;;;;4.43;1.37;;;17.00;68.00;;;;;;5019872;28;20481;-71
2022/05/25 00:50:11;;;;;;;3.47;1.43;;;16.90;68.00;;;;;;5020082;28;20452;-69
2022/05/25 00:52:41;;;;;;;3.43;1.23;;;16.90;68.00;;;;;;5016942;28;20459;-71
2022/05/25 00:55:14;;;;;;;3.10;1.00;;;16.90;68.10;;;;;;5018553;28;20467;-71
2022/05/25 00:57:44;;;;;;;4.10;1.87;;;16.90;68.10;;;;;;5020304;28;21149;-71
2022/05/25 01:00:17;;;;;;;4.50;1.30;;;16.90;68.10;;;;;;5020673;28;20459;-71
2022/05/25 01:02:49;;;;;;;4.30;1.37;;;16.90;68.20;;;;;;5023361;28;20466;-71
2022/05/25 01:05:22;;;;;;;3.90;1.47;;;16.90;68.20;;;;;;5020917;28;20464;-71
2022/05/25 01:08:04;;;;;;;3.20;1.00;;;16.90;68.20;;;;;;5018122;28;20822;-71
2022/05/25 01:10:44;;;;;;;3.50;1.27;;;16.80;68.20;;;;;;5019450;28;20461;-71
2022/05/25 01:13:23;;;;;;;4.30;1.30;;;16.80;68.20;;;;;;5020417;28;21278;-71
2022/05/25 01:16:01;;;;;;;3.73;1.10;;;16.70;68.30;;;;;;5019925;28;20482;-71
2022/05/25 01:18:35;;;;;;;3.50;1.10;;;16.70;68.40;;;;;;5015045;28;20488;-71
2022/05/25 01:21:12;;;;;;;3.80;1.20;;;16.70;68.50;;;;;;5023641;28;20452;-71
2022/05/25 01:24:00;;;;;;;3.50;1.33;;;16.70;68.50;;;;;;5022793;28;20838;-71
2022/05/25 01:27:03;;;;;;;6.67;1.37;;;16.60;68.50;;;;;;5017139;28;20458;-71
2022/05/25 01:30:03;;;;;;;3.33;1.00;;;16.60;68.60;;;;;;4983553;28;1044133;-70
2022/05/25 01:32:39;;;;;;;4.27;1.60;;;16.60;68.60;;;;;;5020425;28;20746;-72
2022/05/25 01:35:14;;;;;;;3.30;1.23;;;16.50;68.60;;;;;;5021883;28;20985;-72
2022/05/25 01:37:47;;;;;;;4.40;1.27;;;16.50;68.60;;;;;;5021576;28;20816;-69
2022/05/25 01:40:22;;;;;;;5.13;1.40;;;16.50;68.60;;;;;;5038351;28;20472;-72
2022/05/25 01:42:56;;;;;;;4.00;1.30;;;16.50;68.70;;;;;;5021030;28;20448;-72
2022/05/25 01:45:29;;;;;;;3.70;1.30;;;16.50;68.70;;;;;;5020312;28;20529;-72
2022/05/25 01:48:01;;;;;;;3.07;0.97;;;16.50;68.80;;;;;;5020290;28;20890;-72
2022/05/25 01:50:36;;;;;;;4.80;1.30;;;16.50;68.80;;;;;;5017809;28;20853;-71
2022/05/25 01:53:07;;;;;;;3.97;1.30;;;16.50;68.80;;;;;;5021618;28;20456;-70
2022/05/25 01:55:39;;;;;;;4.90;1.47;;;16.50;68.80;;;;;;5023114;28;20467;-70
2022/05/25 01:58:12;;;;;;;3.47;1.53;;;16.50;68.90;;;;;;5019551;28;20476;-69
2022/05/25 02:00:44;;;;;;;4.33;1.50;;;16.40;68.90;;;;;;5016960;28;20477;-72
2022/05/25 02:06:24;;;;;;;5.13;1.40;;;16.40;68.90;;;;;;5016068;28;20464;-69
2022/05/25 02:09:11;;;;;;;3.77;1.23;;;16.40;69.00;;;;;;5016462;28;20480;-71
2022/05/25 02:11:42;;;;;;;3.80;1.47;;;16.40;69.00;;;;;;5017703;28;20956;-72
2022/05/25 02:14:27;;;;;;;3.63;1.40;;;16.40;69.00;;;;;;5036739;28;20459;-70
2022/05/25 02:17:06;;;;;;;5.30;1.50;;;16.40;68.90;;;;;;5022259;28;20484;-72
2022/05/25 02:19:39;;;;;;;3.80;1.50;;;16.30;69.00;;;;;;5024524;28;20467;-69
2022/05/25 02:22:13;;;;;;;4.50;1.27;;;16.30;69.00;;;;;;5013351;28;20460;-71
2022/05/25 02:24:48;;;;;;;3.70;1.17;;;16.30;69.00;;;;;;5014795;28;20495;-71
2022/05/25 02:27:22;;;;;;;4.10;1.83;;;16.30;69.10;;;;;;5014515;28;21130;-71
2022/05/25 02:29:54;;;;;;;3.70;1.30;;;16.30;69.10;;;;;;5022290;28;20999;-71
2022/05/25 02:32:29;;;;;;;3.90;1.30;;;16.30;69.10;;;;;;5019850;28;20519;-70
2022/05/25 02:34:58;;;;;;;4.17;1.23;;;16.30;69.20;;;;;;5018906;28;20486;-72
2022/05/25 02:37:30;;;;;;;3.37;1.20;;;16.30;69.20;;;;;;5016937;28;20733;-68
2022/05/25 02:40:01;;;;;;;3.77;1.30;;;16.30;69.20;;;;;;5017431;28;20460;-71
2022/05/25 02:42:29;;;;;;;3.40;1.20;;;16.30;69.30;;;;;;5018343;28;20460;-71
2022/05/25 02:44:58;;;;;;;4.00;1.40;;;16.30;69.30;;;;;;5023104;28;20482;-71
2022/05/25 02:47:27;;;;;;;4.50;1.60;;;16.20;69.30;;;;;;5023156;28;20491;-71
2022/05/25 02:49:55;;;;;;;5.63;1.57;;;16.20;69.30;;;;;;5017869;28;20472;-69
2022/05/25 02:52:23;;;;;;;3.47;1.27;;;16.20;69.40;;;;;;5018180;28;20467;-69
2022/05/25 02:54:51;;;;;;;4.33;1.77;;;16.20;69.40;;;;;;5019544;28;20459;-70
2022/05/25 02:57:19;;;;;;;4.13;1.67;;;16.20;69.40;;;;;;5018715;28;20471;-71
2022/05/25 02:59:47;;;;;;;4.70;1.60;;;16.20;69.50;;;;;;5022181;28;20460;-69
2022/05/25 03:02:16;;;;;;;7.00;1.23;;;16.20;69.50;;;;;;5017013;28;20499;-72
2022/05/25 03:04:45;;;;;;;3.90;1.50;;;16.20;69.40;;;;;;5019517;28;20476;-72
2022/05/25 03:07:13;;;;;;;3.60;1.37;;;16.20;69.50;;;;;;5017776;28;20471;-69
2022/05/25 03:09:42;;;;;;;4.73;1.53;;;16.20;69.50;;;;;;5014409;28;20478;-69
2022/05/25 03:12:10;;;;;;;3.53;1.50;;;16.20;69.50;;;;;;5019978;28;20467;-70
2022/05/25 03:14:38;;;;;;;6.50;1.40;;;16.10;69.60;;;;;;5018313;28;20455;-72
2022/05/25 03:17:09;;;;;;;3.73;1.63;;;16.10;69.60;;;;;;5020144;28;20517;-71
2022/05/25 03:19:38;;;;;;;4.07;1.20;;;16.10;69.60;;;;;;5019259;28;20464;-71
2022/05/25 03:22:07;;;;;;;3.70;1.30;;;16.10;69.60;;;;;;5016258;28;20468;-72
2022/05/25 03:24:35;;;;;;;3.53;1.47;;;16.10;69.60;;;;;;5017544;28;20469;-71
2022/05/25 03:27:04;;;;;;;3.70;1.50;;;16.10;69.70;;;;;;5021850;28;20456;-71
2022/05/25 03:29:32;;;;;;;4.13;1.47;;;16.10;69.70;;;;;;5018028;28;20500;-72
2022/05/25 03:32:00;;;;;;;6.53;1.87;;;16.10;69.80;;;;;;5018922;28;20488;-71
2022/05/25 03:34:28;;;;;;;4.20;1.43;;;16.10;69.80;;;;;;5018361;28;20458;-68
2022/05/25 03:36:56;;;;;;;3.13;1.00;;;16.00;69.80;;;;;;5018122;28;20475;-72
2022/05/25 03:39:28;;;;;;;3.73;1.10;;;16.00;69.80;;;;;;5016880;28;20487;-71
2022/05/25 03:41:59;;;;;;;6.03;1.77;;;16.00;70.00;;;;;;5012596;28;20466;-74
2022/05/25 03:44:28;;;;;;;3.10;1.13;;;16.00;70.00;;;;;;5015849;28;20472;-72
2022/05/25 03:46:56;;;;;;;3.57;1.37;;;16.00;70.00;;;;;;5020860;28;21184;-71
2022/05/25 03:49:24;;;;;;;5.23;1.47;;;16.00;70.00;;;;;;5036003;28;20578;-71
2022/05/25 03:51:52;;;;;;;4.80;1.30;;;16.00;70.10;;;;;;5016198;28;20486;-69
2022/05/25 03:54:20;;;;;;;3.80;1.63;;;16.00;70.10;;;;;;5020390;28;20483;-71
2022/05/25 03:56:49;;;;;;;3.50;1.37;;;16.00;70.10;;;;;;5017056;28;20490;-71
2022/05/25 03:59:17;;;;;;;3.70;1.43;;;16.00;70.10;;;;;;5023083;28;20492;-72
2022/05/25 04:01:45;;;;;;;6.17;1.80;;;15.90;70.10;;;;;;5020093;28;21110;-72
2022/05/25 04:04:13;;;;;;;3.47;1.40;;;15.90;70.20;;;;;;5020267;28;20464;-71
2022/05/25 04:06:41;;;;;;;3.67;1.37;;;15.90;70.20;;;;;;5018375;28;20591;-72
2022/05/25 04:09:10;;;;;;;3.57;1.33;;;15.90;70.20;;;;;;5016068;28;20491;-71
2022/05/25 04:11:38;;;;;;;4.07;1.17;;;15.90;70.30;;;;;;5012856;28;20487;-71
2022/05/25 04:14:08;;;;;;;4.60;1.60;;;15.90;70.30;;;;;;5017170;28;20475;-68
2022/05/25 04:16:36;;;;;;;4.27;1.40;;;15.90;70.30;;;;;;5016505;28;20494;-68
2022/05/25 04:19:04;;;;;;;4.63;1.40;;;15.90;70.30;;;;;;5016560;28;20484;-69
2022/05/25 04:21:32;;;;;;;4.07;1.70;;;15.80;70.40;;;;;;5016380;28;20465;-71
2022/05/25 04:24:00;;;;;;;3.43;1.23;;;15.80;70.40;;;;;;5013047;28;20467;-68
2022/05/25 04:26:30;;;;;;;3.90;1.60;;;15.80;70.50;;;;;;5017776;28;20474;-70
2022/05/25 04:28:58;;;;;;;8.83;1.47;;;15.80;70.50;;;;;;5013437;28;21017;-70
2022/05/25 04:31:28;;;;;;;4.30;1.53;;;15.80;70.50;;;;;;5016724;28;20484;-70
2022/05/25 04:33:56;;;;;;;3.80;1.37;;;15.80;70.60;;;;;;5018080;28;20464;-70
2022/05/25 04:36:24;;;;;;;3.63;1.37;;;15.80;70.60;;;;;;5019560;28;20467;-70
2022/05/25 04:38:52;;;;;;;4.40;1.50;;;15.80;70.60;;;;;;5013984;28;20638;-72
2022/05/25 04:41:21;;;;;;;3.60;1.47;;;15.80;70.60;;;;;;5014842;28;20464;-70
2022/05/25 04:43:49;;;;;;;3.87;1.53;;;15.80;70.60;;;;;;5017374;28;21090;-70
2022/05/25 04:46:17;;;;;;;4.53;1.30;;;15.80;70.60;;;;;;5022756;28;20491;-71
2022/05/25 04:48:46;;;;;;;11.87;2.27;;;15.80;70.70;;;;;;5035577;28;20488;-73
2022/05/25 04:51:14;;;;;;;3.90;1.60;;;15.80;70.70;;;;;;5024137;28;20467;-73
2022/05/25 04:53:43;;;;;;;3.70;1.43;;;15.80;70.70;;;;;;5022693;28;20499;-73
2022/05/25 04:58:57;;;;;;;4.20;1.70;;;15.80;70.70;;;;;;5014613;28;21211;-72
2022/05/25 05:01:25;;;;;;;4.60;1.93;;;15.70;70.90;;;;;;5019943;28;20508;-73
2022/05/25 05:04:00;;;;;;;3.97;1.53;;;15.70;70.90;;;;;;5021909;28;20461;-73
2022/05/25 05:06:28;;;;;;;5.40;1.50;;;15.70;71.00;;;;;;5021781;28;20476;-71
2022/05/25 05:08:56;;;;;;;3.70;1.70;;;15.70;71.10;;;;;;5023562;28;20472;-71
2022/05/25 05:11:24;;;;;;;5.70;1.40;;;15.70;71.30;;;;;;5022612;28;20447;-72
2022/05/25 05:13:53;;;;;;;6.33;1.60;;;15.80;71.40;;;;;;5022114;28;20464;-72
2022/05/25 05:16:21;;;;;;;3.87;1.37;;;15.80;71.40;;;;;;5018756;28;20477;-72
2022/05/25 05:19:02;;;;;;;4.07;1.43;;;15.90;71.50;;;;;;5019457;28;20516;-71
2022/05/25 05:21:50;;;;;;;6.17;1.70;;;15.90;71.50;;;;;;5021792;28;20490;-72
2022/05/25 05:24:18;;;;;;;3.70;1.30;;;16.00;71.60;;;;;;5022240;28;20547;-72
2022/05/25 05:26:46;;;;;;;3.60;1.50;;;16.00;71.60;;;;;;5024316;28;21009;-70
2022/05/25 05:29:14;;;;;;;4.03;1.97;;;16.00;71.70;;;;;;5024163;28;20476;-73
2022/05/25 05:31:42;;;;;;;5.43;1.80;;;16.10;72.00;;;;;;5020044;28;20484;-72
2022/05/25 05:34:12;;;;;;;3.70;1.50;;;16.20;72.20;;;;;;5019727;28;20955;-72
2022/05/25 05:36:45;;;;;;;3.40;1.40;;;16.50;72.30;;;;;;5015896;28;20540;-73
2022/05/25 05:39:15;;;;;;;4.13;1.43;;;16.80;72.10;;;;;;5017280;28;20827;-70
2022/05/25 05:41:47;;;;;;;3.90;1.67;;;17.10;71.70;;;;;;5021482;28;20457;-71
2022/05/25 05:44:19;;;;;;;3.60;1.47;;;17.20;71.40;;;;;;5017064;28;20464;-70
2022/05/25 05:46:48;;;;;;;4.00;1.77;;;17.50;71.40;;;;;;5031586;23;20496;-70
2022/05/25 05:49:18;;;;;;;3.70;1.63;;;17.70;71.20;;;;;;5016489;28;20590;-72
2022/05/25 05:51:47;;;;;;;6.40;1.57;;;18.00;70.70;;;;;;5038302;28;20455;-72
2022/05/25 05:54:16;;;;;;;6.13;1.67;;;18.30;70.90;;;;;;5038070;28;20820;-72
2022/05/25 05:56:45;;;;;;;3.70;1.23;;;18.90;71.20;;;;;;5023262;28;20456;-70
2022/05/25 05:59:13;;;;;;;4.10;1.10;;;19.90;70.90;;;;;;5041214;28;20486;-70
2022/05/25 06:01:42;;;;;;;4.67;1.40;;;21.20;69.80;;;;;;5041962;28;20472;-69
2022/05/25 06:04:10;;;;;;;5.00;1.60;;;22.70;67.80;;;;;;5038406;28;20810;-70
2022/05/25 06:06:40;;;;;;;3.97;1.40;;;24.20;65.30;;;;;;5037656;28;20486;-69
2022/05/25 06:09:08;;;;;;;4.10;1.53;;;25.50;62.50;;;;;;5021360;28;20525;-69
2022/05/25 06:11:40;;;;;;;3.43;1.10;;;26.20;60.20;;;;;;5040312;28;20454;-70
2022/05/25 06:14:08;;;;;;;3.40;1.10;;;26.30;59.00;;;;;;5038714;28;20457;-70
2022/05/25 06:19:33;;;;;;;3.53;0.93;;;25.50;58.00;;;;;;5040191;28;20487;-70
2022/05/25 06:22:05;;;;;;;4.90;1.77;;;24.80;57.80;;;;;;5039499;28;20471;-69
2022/05/25 06:24:37;;;;;;;3.43;1.23;;;24.00;57.50;;;;;;5041238;28;20465;-70
2022/05/25 06:27:08;;;;;;;5.07;1.20;;;23.20;57.70;;;;;;5041156;28;21151;-71
2022/05/25 06:29:37;;;;;;;4.73;1.37;;;22.30;58.20;;;;;;5042096;28;20529;-71
2022/05/25 06:32:07;;;;;;;3.53;1.37;;;21.50;58.90;;;;;;5025793;28;20471;-70
2022/05/25 06:34:37;;;;;;;3.77;1.17;;;20.80;59.70;;;;;;5042949;28;20467;-70
2022/05/25 06:37:07;;;;;;;5.10;1.27;;;20.20;60.50;;;;;;5042057;28;20464;-69
2022/05/25 06:39:36;;;;;;;5.50;1.20;;;19.70;61.20;;;;;;5039063;28;20476;-69
2022/05/25 06:42:13;;;;;;;3.80;1.10;;;19.30;61.80;;;;;;5037909;28;20479;-70
2022/05/25 06:44:52;;;;;;;4.67;1.37;;;19.10;62.50;;;;;;5018528;28;20459;-71
2022/05/25 06:47:21;;;;;;;4.40;1.10;;;18.80;62.90;;;;;;5035077;28;20493;-70
2022/05/25 06:49:53;;;;;;;4.07;1.30;;;18.60;63.30;;;;;;5041203;28;20477;-69
2022/05/25 06:52:23;;;;;;;7.00;1.30;;;18.40;63.70;;;;;;5024131;28;21724;-69
2022/05/25 06:54:53;;;;;;;5.63;1.23;;;18.30;64.00;;;;;;5039923;28;20864;-71
2022/05/25 06:57:22;;;;;;;3.93;1.40;;;18.20;64.30;;;;;;5035079;28;20462;-69
2022/05/25 06:59:50;;;;;;;6.27;1.40;;;18.20;64.60;;;;;;5033863;28;20470;-71
2022/05/25 07:02:19;;;;;;;8.40;1.40;;;18.20;64.90;;;;;;5019078;28;20890;-70
2022/05/25 07:04:47;;;;;;;5.47;1.70;;;18.10;65.10;;;;;;5040775;28;20470;-72
2022/05/25 07:07:15;;;;;;;3.43;1.23;;;18.10;65.70;;;;;;5038573;28;20505;-70
2022/05/25 07:09:45;;;;;;;7.33;1.40;;;18.10;65.70;;;;;;5041413;28;20459;-69
2022/05/25 07:12:13;;;;;;;4.43;1.40;;;18.00;65.70;;;;;;5044281;28;20444;-69
2022/05/25 07:14:41;;;;;;;3.77;1.30;;;18.00;66.20;;;;;;5023553;28;20550;-69
2022/05/25 07:17:10;;;;;;;4.57;1.40;;;18.00;66.20;;;;;;5037552;28;20480;-69
2022/05/25 07:19:38;;;;;;;5.40;1.40;;;18.00;66.20;;;;;;5039484;28;20999;-69
2022/05/25 07:22:08;;;;;;;4.83;1.53;;;18.00;66.50;;;;;;5040256;28;20443;-71
2022/05/25 07:24:36;;;;;;;3.70;1.50;;;18.00;66.50;;;;;;5042936;28;20452;-70
2022/05/25 07:27:06;;;;;;;9.23;1.70;;;18.00;66.70;;;;;;5035874;28;20523;-70
2022/05/25 07:29:34;;;;;;;5.87;1.40;;;18.00;66.70;;;;;;5018143;28;21069;-71
2022/05/25 07:32:05;;;;;;;3.90;1.30;;;18.00;66.70;;;;;;5033262;28;20460;-70
2022/05/25 07:34:38;;;;;;;4.90;1.70;;;18.00;66.90;;;;;;5031717;28;20463;-70
2022/05/25 07:37:12;;;;;;;3.97;1.53;;;18.10;66.80;;;;;;5035613;28;20439;-70
2022/05/25 07:39:45;;;;;;;4.93;1.50;;;18.10;66.80;;;;;;5039587;28;20896;-70
2022/05/25 07:42:16;;;;;;;3.43;1.23;;;18.10;66.90;;;;;;5038405;28;20460;-71
2022/05/25 07:44:48;;;;;;;5.50;1.53;;;18.10;66.90;;;;;;5022957;28;20463;-71
2022/05/25 07:47:16;;;;;;;4.27;1.53;;;18.20;66.90;;;;;;5039144;28;20492;-71
2022/05/25 07:49:45;;;;;;;7.23;1.77;;;18.30;66.90;;;;;;5038060;28;20451;-71
2022/05/25 07:52:14;;;;;;;4.50;1.27;;;18.30;66.60;;;;;;5038495;28;20770;-71
2022/05/25 07:54:42;;;;;;;6.07;1.43;;;18.30;66.50;;;;;;5040577;28;20451;-71
2022/05/25 07:57:11;;;;;;;4.37;0.90;;;18.30;66.30;;;;;;5034867;28;20471;-71
2022/05/25 07:59:41;;;;;;;3.97;1.40;;;18.20;65.90;;;;;;5036946;28;20454;-70
2022/05/25 08:08:01;;;;;;;3.67;1.10;;;18.30;65.80;;;;;;5033105;28;20583;-71
2022/05/25 08:10:29;;;;;;;3.53;0.70;;;18.40;65.70;;;;;;5040634;28;20477;-71
2022/05/25 08:13:00;;;;;;;5.60;1.10;;;18.40;65.30;;;;;;5038027;28;20470;-70
2022/05/25 08:15:31;;;;;;;3.57;1.00;;;18.40;65.40;;;;;;5040445;28;20493;-71
2022/05/25 08:17:59;;;;;;;4.37;1.00;;;18.50;64.70;;;;;;5039067;28;21083;-71
2022/05/25 08:20:30;;;;;;;4.13;1.03;;;18.40;64.10;;;;;;5042127;28;20490;-71
2022/05/25 08:22:58;;;;;;;4.53;1.33;;;18.40;64.80;;;;;;5045995;28;20467;-71
2022/05/25 08:25:27;;;;;;;5.93;1.43;;;18.40;64.50;;;;;;5046251;28;20811;-71
2022/05/25 08:27:55;;;;;;;3.57;0.97;;;18.40;64.50;;;;;;5038977;28;20529;-71
2022/05/25 08:30:23;;;;;;;4.07;1.00;;;18.50;64.40;;;;;;5044378;28;20500;-72
2022/05/25 08:32:53;;;;;;;4.30;1.37;;;18.50;64.40;;;;;;5045146;28;20467;-71
2022/05/25 08:35:21;;;;;;;4.83;1.07;;;18.60;64.50;;;;;;5040733;28;20467;-71
2022/05/25 08:37:49;;;;;;;3.40;1.10;;;18.60;64.30;;;;;;5041381;28;20500;-70
2022/05/25 08:40:20;;;;;;;6.03;1.10;;;18.70;64.20;;;;;;5037843;28;20466;-70
2022/05/25 08:42:53;;;;;;;3.50;0.80;;;18.80;64.20;;;;;;5036569;28;20529;-70
2022/05/25 08:45:24;;;;;;;5.70;1.00;;;18.90;63.90;;;;;;5024977;28;20509;-70
2022/05/25 08:47:57;;;;;;;4.03;0.83;;;19.00;63.70;;;;;;5041515;28;20586;-70
2022/05/25 08:50:25;;;;;;;3.60;1.00;;;19.00;63.40;;;;;;5022728;28;20469;-71
2022/05/25 08:52:56;;;;;;;4.63;0.80;;;19.00;63.00;;;;;;5039480;28;20474;-70
2022/05/25 08:55:48;;;;;;;4.00;0.90;;;19.10;63.00;;;;;;5041989;28;20457;-70
2022/05/25 08:58:17;;;;;;;3.60;0.87;;;19.10;62.70;;;;;;5038862;28;20874;-70
2022/05/25 09:00:49;;;;;;;3.50;1.00;;;19.20;62.50;;;;;;5026337;28;20469;-70
2022/05/25 09:03:26;;;;;;;3.13;0.83;;;19.20;62.40;;;;;;5039207;28;20462;-70
2022/05/25 09:06:00;;;;;;;5.50;1.00;;;19.10;62.20;;;;;;5036839;28;20468;-70
2022/05/25 09:08:36;;;;;;;4.37;1.07;;;19.10;62.20;;;;;;5023813;28;20491;-70
2022/05/25 09:11:12;;;;;;;6.60;1.00;;;19.10;62.20;;;;;;5037950;28;20468;-70
2022/05/25 09:13:43;;;;;;;4.33;1.10;;;19.10;62.20;;;;;;5022027;28;20459;-71
2022/05/25 09:16:17;;;;;;;4.47;1.10;;;19.10;62.40;;;;;;5032468;28;21216;-70
2022/05/25 09:18:54;;;;;;;3.80;1.10;;;19.30;62.30;;;;;;5032803;28;20472;-70
2022/05/25 09:21:26;;;;;;;5.33;0.90;;;19.30;62.30;;;;;;5037461;28;20559;-70
2022/05/25 09:23:57;;;;;;;4.40;0.93;;;19.40;62.20;;;;;;5036224;28;20462;-70
2022/05/25 09:26:26;;;;;;;4.17;1.00;;;19.50;62.00;;;;;;5040182;28;20448;-70
2022/05/25 09:29:04;;;;;;;4.17;1.10;;;19.50;62.00;;;;;;5040616;28;20584;-70
2022/05/25 09:31:37;;;;;;;4.00;0.77;;;19.50;61.80;;;;;;5041805;28;20496;-70
2022/05/25 09:34:11;;;;;;;3.53;0.83;;;19.60;61.70;;;;;;5041849;28;20469;-70
2022/05/25 09:36:46;;;;;;;4.70;0.90;;;19.60;61.60;;;;;;5037502;28;20456;-70
2022/05/25 09:39:16;;;;;;;3.87;1.10;;;19.70;61.40;;;;;;5037819;28;20485;-70
2022/05/25 09:41:46;;;;;;;3.50;0.80;;;19.60;61.40;;;;;;5037305;28;20962;-70
2022/05/25 09:44:19;;;;;;;3.30;0.90;;;19.60;61.30;;;;;;5017732;28;20461;-70
2022/05/25 09:46:51;;;;;;;6.53;1.10;;;19.60;61.20;;;;;;5038867;28;20480;-70
2022/05/25 09:49:40;;;;;;;3.50;0.93;;;19.60;61.30;;;;;;5040769;28;20492;-70
2022/05/25 09:52:15;;;;;;;4.93;1.10;;;19.60;61.40;;;;;;5039589;28;20455;-70
2022/05/25 09:54:47;;;;;;;3.57;1.10;;;19.60;61.40;;;;;;5038652;28;20672;-70
2022/05/25 09:57:25;;;;;;;3.20;0.70;;;19.60;61.30;;;;;;5038414;28;20463;-70
2022/05/25 10:00:00;;;;;;;3.20;0.93;;;19.70;61.40;;;;;;5037419;28;20457;-70
2022/05/25 10:02:35;;;;;;;5.47;0.80;;;19.70;61.40;;;;;;5036906;28;20463;-70
2022/05/25 10:05:17;;;;;;;10.73;1.03;;;19.70;61.40;;;;;;5040262;28;20479;-70
2022/05/25 10:07:54;;;;;;;3.67;1.00;;;19.70;61.10;;;;;;5040739;28;20478;-70
2022/05/25 10:10:31;;;;;;;3.43;0.70;;;19.70;61.00;;;;;;5037258;28;20451;-70
2022/05/25 10:13:02;;;;;;;3.80;1.10;;;19.70;60.80;;;;;;5035660;28;20552;-70
2022/05/25 10:15:34;;;;;;;4.20;1.10;;;19.60;60.80;;;;;;5038059;28;20565;-70
2022/05/25 10:18:04;;;;;;;5.27;0.90;;;19.70;61.00;;;;;;5038690;28;20483;-70
2022/05/25 10:20:45;;;;;;;3.30;1.00;;;19.70;60.80;;;;;;5042381;28;20461;-70
2022/05/25 10:23:21;;;;;;;8.30;1.07;;;19.80;60.70;;;;;;5036877;28;20463;-70
2022/05/25 10:25:51;;;;;;;3.50;0.87;;;19.80;60.60;;;;;;5033205;28;20463;-69
2022/05/25 10:28:28;;;;;;;5.10;0.97;;;19.80;60.60;;;;;;5038472;28;20496;-69
2022/05/25 10:36:53;;;;;;;3.30;0.97;;;19.60;59.90;;;;;;5040956;28;20459;-69
2022/05/25 10:39:31;;;;;;;3.17;0.60;;;19.60;60.10;;;;;;5036857;28;20475;-70
2022/05/25 10:42:04;;;;;;;3.40;0.90;;;19.70;60.00;;;;;;5034004;28;20477;-71
2022/05/25 10:44:39;;;;;;;4.20;0.77;;;19.70;60.10;;;;;;5034928;28;20488;-71
2022/05/25 10:47:16;;;;;;;4.07;0.90;;;19.80;60.30;;;;;;5035474;28;20906;-70
2022/05/25 10:49:44;;;;;;;3.37;0.70;;;19.90;60.20;;;;;;5025248;28;21007;-70
2022/05/25 10:52:21;;;;;;;7.37;1.00;;;20.00;60.10;;;;;;5038007;28;20460;-70
2022/05/25 10:54:51;;;;;;;5.20;0.80;;;20.10;60.00;;;;;;5037643;28;20482;-71
2022/05/25 10:57:36;;;;;;;3.37;0.83;;;20.10;59.60;;;;;;5037139;28;20459;-71
2022/05/25 11:00:07;;;;;;;3.60;1.10;;;20.20;59.90;;;;;;5034149;28;20551;-70
2022/05/25 11:02:53;;;;;;;5.37;1.00;;;20.30;59.80;;;;;;5040792;28;20575;-71
2022/05/25 11:05:31;;;;;;;4.67;0.80;;;20.40;59.60;;;;;;5039934;28;20477;-72
2022/05/25 11:08:10;;;;;;;6.30;1.30;;;20.40;59.50;;;;;;5039594;28;20562;-72
2022/05/25 11:10:45;;;;;;;11.43;1.10;;;20.30;59.20;;;;;;5040508;28;20466;-72
2022/05/25 11:13:37;;;;;;;3.10;0.70;;;20.30;59.20;;;;;;5038676;28;20479;-72
2022/05/25 11:16:21;;;;;;;3.43;0.60;;;20.20;59.00;;;;;;5038928;28;20465;-72
2022/05/25 11:19:02;;;;;;;4.23;1.00;;;20.10;58.90;;;;;;5054781;28;20513;-71
2022/05/25 11:21:40;;;;;;;7.60;0.80;;;20.10;59.30;;;;;;5053038;28;20463;-75
2022/05/25 11:24:23;;;;;;;3.60;0.93;;;20.10;59.60;;;;;;5032629;22;20508;-76
2022/05/25 11:27:04;;;;;;;3.97;0.90;;;20.20;59.40;;;;;;5018943;28;20464;-77
2022/05/25 11:29:47;;;;;;;3.60;1.00;;;20.30;59.50;;;;;;5029467;28;20542;-76
2022/05/25 11:32:25;;;;;;;3.47;1.03;;;20.40;59.40;;;;;;5038291;28;20495;-76
2022/05/25 11:35:12;;;;;;;4.47;0.90;;;20.40;59.00;;;;;;5037988;28;20565;-74
2022/05/25 11:37:53;;;;;;;3.23;0.90;;;20.40;59.20;;;;;;5018368;28;20466;-74
2022/05/25 11:40:37;;;;;;;3.40;0.90;;;20.40;59.20;;;;;;5036990;28;20456;-75
2022/05/25 11:43:37;;;;;;;4.53;0.90;;;20.40;59.30;;;;;;5040302;28;20589;-75
2022/05/25 11:46:15;;;;;;;3.40;1.10;;;20.50;59.30;;;;;;5011495;28;20536;-78
2022/05/25 11:49:43;;;;;;;6.00;1.07;;;20.60;59.30;;;;;;5031519;28;20486;-75
2022/05/25 11:52:32;;;;;;;3.97;1.07;;;20.70;59.00;;;;;;5037498;28;20445;-79
2022/05/25 11:55:11;;;;;;;4.13;1.20;;;20.70;58.80;;;;;;5049966;28;20464;-79
2022/05/25 11:57:47;;;;;;;4.67;1.00;;;20.80;58.70;;;;;;5046204;28;20478;-79
2022/05/25 12:00:27;;;;;;;4.20;0.93;;;20.70;58.20;;;;;;5025134;28;20845;-79
2022/05/25 12:03:11;;;;;;;5.33;1.00;;;20.70;58.20;;;;;;5031413;28;20458;-79
2022/05/25 12:05:55;;;;;;;3.50;1.00;;;20.60;58.20;;;;;;5035395;28;20505;-79
2022/05/25 12:08:41;;;;;;;3.60;0.80;;;20.60;58.20;;;;;;5015138;28;20495;-79
2022/05/25 12:11:19;;;;;;;3.97;0.90;;;20.60;58.10;;;;;;5047386;28;20464;-79
2022/05/25 12:13:55;;;;;;;6.03;1.07;;;20.50;58.30;;;;;;5047185;28;20564;-79
2022/05/25 12:16:28;;;;;;;9.90;1.37;;;20.50;58.30;;;;;;5049443;28;20481;-79
2022/05/25 12:19:01;;;;;;;4.77;1.60;;;20.60;58.20;;;;;;5039530;28;20507;-79
2022/05/25 12:21:35;;;;;;;3.10;0.80;;;20.60;58.20;;;;;;5034956;28;20450;-79
2022/05/25 12:24:07;;;;;;;3.33;0.83;;;20.60;57.90;;;;;;5034683;28;20460;-79
2022/05/25 12:26:37;;;;;;;3.93;1.00;;;20.60;58.10;;;;;;5052025;28;20458;-79
2022/05/25 12:29:15;;;;;;;3.40;0.87;;;20.60;58.30;;;;;;5051417;28;20485;-79
2022/05/25 12:31:49;;;;;;;5.17;1.50;;;20.70;58.40;;;;;;5052260;28;20557;-79
2022/05/25 12:34:24;;;;;;;3.37;1.00;;;20.80;58.40;;;;;;5052477;28;20817;-80
2022/05/25 12:36:53;;;;;;;3.50;0.90;;;20.80;58.30;;;;;;5051036;28;20959;-78
2022/05/25 12:42:47;;;;;;;4.87;0.80;;;20.90;58.20;;;;;;5486345;23;20562;-72
2022/05/25 12:48:56;;;;;;;3.70;1.20;;;20.90;58.00;;;;;;4861937;29;20850;-71
2022/05/25 12:51:32;;;;;;;3.50;1.10;;;20.90;57.80;;;;;;4912064;29;20470;-71
2022/05/25 12:54:05;;;;;;;3.67;1.10;;;20.80;57.70;;;;;;4883183;29;20465;-71
2022/05/25 12:56:36;;;;;;;3.60;1.00;;;20.80;57.70;;;;;;4895405;29;20449;-71
2022/05/25 12:59:08;;;;;;;3.27;0.90;;;20.80;57.70;;;;;;4892009;29;20866;-72
2022/05/25 13:01:40;;;;;;;3.77;1.10;;;20.70;57.70;;;;;;4888325;29;20602;-72
2022/05/25 13:04:28;;;;;;;4.43;1.30;;;20.70;57.70;;;;;;4876583;29;20470;-73
2022/05/25 13:07:22;;;;;;;4.63;1.13;;;20.70;57.70;;;;;;4895641;29;20499;-72
2022/05/25 13:09:51;;;;;;;4.70;0.93;;;20.60;57.60;;;;;;4889649;29;20474;-73
2022/05/25 13:12:46;;;;;;;4.80;0.97;;;20.60;57.60;;;;;;4878884;29;20474;-73
2022/05/25 13:15:39;;;;;;;3.63;0.97;;;20.60;57.70;;;;;;4872292;29;20506;-72
2022/05/25 13:18:29;;;;;;;3.50;0.80;;;20.60;57.70;;;;;;4865583;29;20501;-72
2022/05/25 13:21:01;;;;;;;3.97;0.73;;;20.60;57.80;;;;;;4876905;29;20825;-73
2022/05/25 13:24:07;;;;;;;3.60;0.90;;;20.60;57.70;;;;;;4880358;29;20488;-71
2022/05/25 13:26:47;;;;;;;3.80;0.93;;;20.60;57.50;;;;;;4873691;29;20466;-72
2022/05/25 13:29:21;;;;;;;4.57;1.00;;;20.60;57.60;;;;;;4875995;29;20467;-72
2022/05/25 13:31:56;;;;;;;4.50;0.93;;;20.60;57.70;;;;;;4892906;29;20494;-72
2022/05/25 13:34:30;;;;;;;5.53;0.93;;;20.60;57.70;;;;;;4880827;29;20451;-71
2022/05/25 13:37:01;;;;;;;5.67;1.10;;;20.60;57.70;;;;;;4873965;29;20828;-70
2022/05/25 13:39:30;;;;;;;3.70;0.70;;;20.60;57.70;;;;;;4870202;29;20475;-71
2022/05/25 13:42:04;;;;;;;3.20;0.80;;;20.70;57.90;;;;;;4873015;29;20566;-71